Terminal Aerodrome Forecast
Issued by NWS Los Angeles, CA

Home | Current Version | Previous Version | Text Only | Print | Product List | Glossary On
Versions: 1 2 3 4 5 6 7 8 9 10 11 12 13 14 15 16 17 18 19 20 21 22 23 24
000
FTUS46 KLOX 040806 AAA
TAFSMX
TAF AMD
KSMX 040806Z 0408/0506 VRB03KT 5SM BR OVC002
     FM041100 VRB03KT 1/4SM FG VV002
     FM041400 VRB03KT 2SM BR OVC004
     FM041600 VRB03KT 5SM BR OVC007
     FM041900 28008KT P6SM SCT010
     FM042200 29014KT P6SM SKC
     FM050300 31007KT P6SM BKN005=

USA.gov is the U.S. government's official web portal to all federal, state and local government web resources and services.